Time;durP1;ratioP1;P1;durP2;ratioP2;P2;SDS_P1;SDS_P2;PMS_P1;PMS_P2;Temp;Humidity;BMP_temperature;BMP_pressure;BME280_temperature;BME280_humidity;BME280_pressure;Samples;Min_cycle;Max_cycle;Signal;HPM_P1;HPM_P2
2021/12/18 00:01:48;;;;;;;0.10;0.10;;;;;;;;;;5048487;28;20204;-76
2021/12/18 00:06:49;;;;;;;0.10;0.10;;;;;;;;;;5233101;22;20269;-68
2021/12/18 00:09:15;;;;;;;0.20;0.20;;;;;;;;;;5043831;28;20434;-68
2021/12/18 00:11:41;;;;;;;0.13;0.13;;;;;;;;;;5043943;28;20433;-68
2021/12/18 00:14:08;;;;;;;0.20;0.20;;;;;;;;;;5044015;28;20208;-68
2021/12/18 00:16:36;;;;;;;0.20;0.20;;;;;;;;;;5043721;28;20231;-68
2021/12/18 00:19:04;;;;;;;0.20;0.20;;;;;;;;;;5044272;28;20274;-69
2021/12/18 00:21:31;;;;;;;0.20;0.20;;;;;;;;;;5043587;28;20208;-68
2021/12/18 00:23:57;;;;;;;0.10;0.10;;;;;;;;;;5038085;28;20212;-68
2021/12/18 00:26:23;;;;;;;0.10;0.10;;;;;;;;;;5024387;28;20235;-68
2021/12/18 00:28:49;;;;;;;0.10;0.10;;;;;;;;;;5023947;28;20224;-68
2021/12/18 00:31:15;;;;;;;0.10;0.10;;;;;;;;;;5023729;28;20230;-67
2021/12/18 00:33:42;;;;;;;0.10;0.10;;;;;;;;;;5036927;28;20212;-68
2021/12/18 00:36:09;;;;;;;0.20;0.20;;;;;;;;;;5043309;28;20250;-68
2021/12/18 00:38:35;;;;;;;0.20;0.20;;;;;;;;;;5042896;28;20295;-68
2021/12/18 00:41:14;;;;;;;0.20;0.20;;;;;;;;;;5043182;28;20208;-69
2021/12/18 00:44:01;;;;;;;0.10;0.10;;;;;;;;;;5043547;28;20242;-67
2021/12/18 00:46:27;;;;;;;0.10;0.10;;;;;;;;;;5043090;28;20207;-69
2021/12/18 00:48:54;;;;;;;0.10;0.10;;;;;;;;;;5041880;28;20224;-68
2021/12/18 00:51:21;;;;;;;0.10;0.10;;;;;;;;;;5024007;28;20411;-68
2021/12/18 00:53:47;;;;;;;0.10;0.10;;;;;;;;;;5023469;28;20205;-68
2021/12/18 00:56:14;;;;;;;0.10;0.10;;;;;;;;;;5023503;28;20207;-68
2021/12/18 00:58:40;;;;;;;0.20;0.20;;;;;;;;;;5023498;28;20376;-69
2021/12/18 01:01:09;;;;;;;0.10;0.10;;;;;;;;;;5023473;28;20251;-68
2021/12/18 01:03:36;;;;;;;0.10;0.10;;;;;;;;;;5023330;28;20212;-68
2021/12/18 01:06:02;;;;;;;0.10;0.10;;;;;;;;;;5023173;28;20235;-68
2021/12/18 01:08:29;;;;;;;0.10;0.10;;;;;;;;;;5023338;28;20275;-69
2021/12/18 01:11:21;;;;;;;0.10;0.10;;;;;;;;;;5023441;28;20350;-69
2021/12/18 01:14:00;;;;;;;0.10;0.10;;;;;;;;;;5023298;28;20196;-68
2021/12/18 01:16:37;;;;;;;0.20;0.20;;;;;;;;;;5023333;28;20215;-69
2021/12/18 01:24:43;;;;;;;0.10;0.10;;;;;;;;;;5041759;28;20270;-68
2021/12/18 01:27:10;;;;;;;0.10;0.10;;;;;;;;;;5042670;28;20232;-68
2021/12/18 01:29:36;;;;;;;0.10;0.10;;;;;;;;;;5042597;28;20270;-68
2021/12/18 01:32:02;;;;;;;0.20;0.20;;;;;;;;;;5042322;28;20207;-68
2021/12/18 01:34:28;;;;;;;0.10;0.10;;;;;;;;;;5042626;28;20520;-68
2021/12/18 01:36:54;;;;;;;0.20;0.20;;;;;;;;;;5042872;28;20241;-67
2021/12/18 01:39:21;;;;;;;0.20;0.20;;;;;;;;;;5042725;28;20503;-68
2021/12/18 01:42:05;;;;;;;0.10;0.10;;;;;;;;;;5042771;28;20207;-69
2021/12/18 01:44:52;;;;;;;0.20;0.20;;;;;;;;;;5042711;28;20364;-68
2021/12/18 01:52:53;;;;;;;0.10;0.10;;;;;;;;;;5042505;28;20271;-68
2021/12/18 01:55:19;;;;;;;0.20;0.20;;;;;;;;;;5042647;28;20251;-69
2021/12/18 01:57:47;;;;;;;0.20;0.20;;;;;;;;;;5042713;28;20211;-68
2021/12/18 02:00:17;;;;;;;0.10;0.10;;;;;;;;;;5043764;28;20223;-68
2021/12/18 02:02:43;;;;;;;0.10;0.10;;;;;;;;;;5046471;28;20208;-67
2021/12/18 02:05:09;;;;;;;0.10;0.10;;;;;;;;;;5046407;28;20367;-68
2021/12/18 02:07:35;;;;;;;0.20;0.20;;;;;;;;;;5046132;28;20380;-67
2021/12/18 02:10:05;;;;;;;0.10;0.10;;;;;;;;;;5046034;28;20227;-68
2021/12/18 02:12:40;;;;;;;0.13;0.13;;;;;;;;;;5034094;28;20212;-68
2021/12/18 02:20:47;;;;;;;0.10;0.10;;;;;;;;;;5046146;28;20223;-69
2021/12/18 02:23:14;;;;;;;0.10;0.10;;;;;;;;;;5045704;28;20237;-68
2021/12/18 02:25:40;;;;;;;0.10;0.10;;;;;;;;;;5046130;28;20204;-67
2021/12/18 02:28:13;;;;;;;0.10;0.10;;;;;;;;;;5046144;28;20235;-68
2021/12/18 02:30:39;;;;;;;0.10;0.10;;;;;;;;;;5045728;28;20279;-67
2021/12/18 02:33:06;;;;;;;0.20;0.20;;;;;;;;;;5046044;28;20208;-67
2021/12/18 02:35:35;;;;;;;0.10;0.10;;;;;;;;;;5045919;28;20219;-66
2021/12/18 02:38:10;;;;;;;0.10;0.10;;;;;;;;;;5045809;28;20266;-69
2021/12/18 02:40:55;;;;;;;0.10;0.10;;;;;;;;;;5046588;28;20210;-68
2021/12/18 02:43:23;;;;;;;0.10;0.10;;;;;;;;;;5045507;28;20208;-69
2021/12/18 02:45:53;;;;;;;0.20;0.20;;;;;;;;;;5045449;28;20210;-69
2021/12/18 02:48:19;;;;;;;0.10;0.10;;;;;;;;;;5045916;28;20216;-68
2021/12/18 02:50:45;;;;;;;0.10;0.10;;;;;;;;;;5045646;28;20228;-69
2021/12/18 02:53:13;;;;;;;0.20;0.20;;;;;;;;;;5045287;28;20205;-68
2021/12/18 02:55:39;;;;;;;0.10;0.10;;;;;;;;;;5045322;28;20258;-68
2021/12/18 02:58:05;;;;;;;0.10;0.10;;;;;;;;;;5045496;28;20330;-68
2021/12/18 03:00:31;;;;;;;0.20;0.20;;;;;;;;;;5045143;28;20421;-69
2021/12/18 03:03:04;;;;;;;0.10;0.10;;;;;;;;;;5045117;28;20503;-68
2021/12/18 03:05:36;;;;;;;0.10;0.10;;;;;;;;;;5044921;28;20463;-68
2021/12/18 03:08:11;;;;;;;0.10;0.10;;;;;;;;;;5044990;28;20278;-69
2021/12/18 03:19:40;;;;;;;0.10;0.10;;;;;;;;;;5045048;28;20530;-69
2021/12/18 03:22:36;;;;;;;0.10;0.10;;;;;;;;;;5044850;28;20204;-68
2021/12/18 03:24:59;;;;;;;0.10;0.10;;;;;;;;;;5044553;28;20502;-68
2021/12/18 03:27:27;;;;;;;0.10;0.10;;;;;;;;;;5044986;28;20196;-68
2021/12/18 03:29:55;;;;;;;0.17;0.17;;;;;;;;;;5044868;28;20283;-67
2021/12/18 03:32:21;;;;;;;0.10;0.10;;;;;;;;;;5044612;28;20313;-68
2021/12/18 03:34:47;;;;;;;0.20;0.20;;;;;;;;;;5044442;28;20215;-67
2021/12/18 03:37:13;;;;;;;0.10;0.10;;;;;;;;;;5044819;28;20207;-69
2021/12/18 03:39:40;;;;;;;0.20;0.20;;;;;;;;;;5044685;28;20203;-69
2021/12/18 03:42:06;;;;;;;0.13;0.13;;;;;;;;;;5044368;28;20208;-68
2021/12/18 03:44:35;;;;;;;0.10;0.10;;;;;;;;;;5044106;28;20204;-69
2021/12/18 03:47:01;;;;;;;0.10;0.10;;;;;;;;;;5044133;28;20382;-69
2021/12/18 03:49:27;;;;;;;0.10;0.10;;;;;;;;;;5044061;28;20220;-69
2021/12/18 03:51:54;;;;;;;0.10;0.10;;;;;;;;;;5035998;28;20256;-68
2021/12/18 03:54:20;;;;;;;0.10;0.10;;;;;;;;;;5025694;28;20201;-67
2021/12/18 03:56:46;;;;;;;0.10;0.10;;;;;;;;;;5035135;28;20210;-68
2021/12/18 03:59:12;;;;;;;0.10;0.10;;;;;;;;;;5040157;28;20238;-68
2021/12/18 04:01:40;;;;;;;0.10;0.10;;;;;;;;;;5028605;28;20205;-69
2021/12/18 04:04:06;;;;;;;0.20;0.20;;;;;;;;;;5038325;28;20211;-68
2021/12/18 04:06:32;;;;;;;0.20;0.20;;;;;;;;;;5032646;28;20263;-68
2021/12/18 04:08:59;;;;;;;0.10;0.10;;;;;;;;;;5031685;28;20208;-68
2021/12/18 04:11:25;;;;;;;0.10;0.10;;;;;;;;;;5032214;28;20228;-68
2021/12/18 04:13:51;;;;;;;0.10;0.10;;;;;;;;;;5031956;28;20216;-68
2021/12/18 04:16:18;;;;;;;0.10;0.10;;;;;;;;;;5030463;28;20207;-69
2021/12/18 04:18:45;;;;;;;0.10;0.10;;;;;;;;;;5038016;28;20250;-69
2021/12/18 04:21:12;;;;;;;0.13;0.13;;;;;;;;;;5035214;28;20397;-69
2021/12/18 04:23:38;;;;;;;0.13;0.13;;;;;;;;;;5036191;28;20242;-69
2021/12/18 04:26:04;;;;;;;0.10;0.10;;;;;;;;;;5029325;28;20396;-69
2021/12/18 04:28:30;;;;;;;0.13;0.13;;;;;;;;;;5040278;28;20207;-69
2021/12/18 04:30:57;;;;;;;0.10;0.10;;;;;;;;;;5041980;28;20391;-68
2021/12/18 04:33:23;;;;;;;0.10;0.10;;;;;;;;;;5033994;28;20214;-68
2021/12/18 04:35:50;;;;;;;0.10;0.10;;;;;;;;;;5040201;28;20208;-68
2021/12/18 04:38:17;;;;;;;0.20;0.20;;;;;;;;;;5030986;28;20251;-68
2021/12/18 04:40:44;;;;;;;0.20;0.20;;;;;;;;;;5036452;28;20204;-68
2021/12/18 04:43:10;;;;;;;0.10;0.10;;;;;;;;;;5032774;28;20209;-68
2021/12/18 04:45:36;;;;;;;0.10;0.10;;;;;;;;;;5037463;28;20369;-68
2021/12/18 04:48:03;;;;;;;0.17;0.17;;;;;;;;;;5037560;28;20238;-69
2021/12/18 04:50:29;;;;;;;0.20;0.20;;;;;;;;;;5031444;28;20231;-68
2021/12/18 04:52:57;;;;;;;0.10;0.10;;;;;;;;;;5034211;28;20207;-68
2021/12/18 04:55:23;;;;;;;0.10;0.10;;;;;;;;;;5028600;28;20213;-69
2021/12/18 04:57:51;;;;;;;0.10;0.10;;;;;;;;;;5028080;28;20376;-68
2021/12/18 05:00:19;;;;;;;0.20;0.20;;;;;;;;;;5033069;28;20246;-68
2021/12/18 05:02:47;;;;;;;0.20;0.20;;;;;;;;;;5028617;28;20497;-68
2021/12/18 05:05:14;;;;;;;0.13;0.13;;;;;;;;;;5034378;28;20440;-68
2021/12/18 05:07:40;;;;;;;0.17;0.17;;;;;;;;;;5031553;28;20231;-68
2021/12/18 05:10:09;;;;;;;0.10;0.10;;;;;;;;;;5023000;28;20551;-68
2021/12/18 05:12:35;;;;;;;0.20;0.20;;;;;;;;;;5028719;28;20208;-68
2021/12/18 05:15:02;;;;;;;0.20;0.20;;;;;;;;;;5042809;28;20503;-68
2021/12/18 05:17:28;;;;;;;0.10;0.10;;;;;;;;;;5043033;28;20258;-68
2021/12/18 05:19:54;;;;;;;0.10;0.10;;;;;;;;;;5042707;28;20204;-69
2021/12/18 05:22:20;;;;;;;0.10;0.10;;;;;;;;;;5042564;28;20200;-69
2021/12/18 05:24:47;;;;;;;0.10;0.10;;;;;;;;;;5042730;28;20203;-69
2021/12/18 05:27:14;;;;;;;0.10;0.10;;;;;;;;;;5042598;28;20222;-69
2021/12/18 05:29:40;;;;;;;0.10;0.10;;;;;;;;;;5042899;28;20208;-69
2021/12/18 05:32:07;;;;;;;0.20;0.20;;;;;;;;;;5042918;28;20219;-69
2021/12/18 05:34:37;;;;;;;0.10;0.10;;;;;;;;;;5042647;28;20434;-69
2021/12/18 05:37:30;;;;;;;0.20;0.20;;;;;;;;;;5047162;28;20536;-68
2021/12/18 05:39:57;;;;;;;0.10;0.10;;;;;;;;;;5047184;28;20279;-68
2021/12/18 05:42:24;;;;;;;0.20;0.20;;;;;;;;;;5046917;28;20402;-69
2021/12/18 05:44:50;;;;;;;0.10;0.10;;;;;;;;;;5046944;28;20207;-68
2021/12/18 05:47:16;;;;;;;0.10;0.10;;;;;;;;;;5046655;28;20459;-68
2021/12/18 05:49:43;;;;;;;0.10;0.10;;;;;;;;;;5046779;28;20207;-68
2021/12/18 05:52:09;;;;;;;0.10;0.10;;;;;;;;;;5046796;28;20221;-68
2021/12/18 05:54:36;;;;;;;0.10;0.10;;;;;;;;;;5046783;28;20394;-68
2021/12/18 05:57:03;;;;;;;0.20;0.20;;;;;;;;;;5046403;28;20203;-68
2021/12/18 05:59:31;;;;;;;0.20;0.20;;;;;;;;;;5046580;28;20293;-69
2021/12/18 06:01:57;;;;;;;0.10;0.10;;;;;;;;;;5046248;28;20273;-68
2021/12/18 06:04:23;;;;;;;0.13;0.13;;;;;;;;;;5046636;28;20207;-69
2021/12/18 06:06:49;;;;;;;0.10;0.10;;;;;;;;;;5046087;28;20600;-69
2021/12/18 06:09:16;;;;;;;0.13;0.13;;;;;;;;;;5046470;28;20208;-68
2021/12/18 06:11:42;;;;;;;0.10;0.10;;;;;;;;;;5046117;28;20220;-68
2021/12/18 06:14:09;;;;;;;0.20;0.20;;;;;;;;;;5046429;28;20208;-68
2021/12/18 06:16:36;;;;;;;0.10;0.10;;;;;;;;;;5046337;28;20379;-67
2021/12/18 06:19:03;;;;;;;0.10;0.10;;;;;;;;;;5046316;28;20214;-68
2021/12/18 06:21:29;;;;;;;0.20;0.20;;;;;;;;;;5046114;28;20207;-69
2021/12/18 06:23:56;;;;;;;0.10;0.10;;;;;;;;;;5046174;28;20250;-68
2021/12/18 06:26:23;;;;;;;0.10;0.10;;;;;;;;;;5045853;28;20230;-68
2021/12/18 06:28:49;;;;;;;0.20;0.20;;;;;;;;;;5046095;28;20207;-67
2021/12/18 06:31:16;;;;;;;0.10;0.10;;;;;;;;;;5045987;28;20277;-68
2021/12/18 06:33:43;;;;;;;0.10;0.10;;;;;;;;;;5045961;28;20208;-68
2021/12/18 06:36:09;;;;;;;0.10;0.10;;;;;;;;;;5046613;28;20258;-67
2021/12/18 06:38:35;;;;;;;0.10;0.10;;;;;;;;;;5045625;28;20231;-68
2021/12/18 06:41:02;;;;;;;0.67;0.67;;;;;;;;;;5045699;28;20330;-68
2021/12/18 06:43:28;;;;;;;0.10;0.10;;;;;;;;;;5045442;28;20214;-68
2021/12/18 06:45:54;;;;;;;0.10;0.10;;;;;;;;;;5045280;28;20262;-68
2021/12/18 06:48:20;;;;;;;0.10;0.10;;;;;;;;;;5044708;28;20499;-68
2021/12/18 06:50:50;;;;;;;0.20;0.20;;;;;;;;;;5045348;28;20277;-68
2021/12/18 06:53:16;;;;;;;0.10;0.10;;;;;;;;;;5044979;28;20253;-68
2021/12/18 06:55:42;;;;;;;0.10;0.10;;;;;;;;;;5045972;28;20208;-67
2021/12/18 06:58:08;;;;;;;0.10;0.10;;;;;;;;;;5045201;28;20231;-68
2021/12/18 07:00:35;;;;;;;0.20;0.20;;;;;;;;;;5045464;28;20561;-67
2021/12/18 07:03:01;;;;;;;0.10;0.10;;;;;;;;;;5045360;28;20230;-68
2021/12/18 07:05:27;;;;;;;0.20;0.20;;;;;;;;;;5045182;28;20290;-68
2021/12/18 07:07:56;;;;;;;3.03;1.33;;;;;;;;;;5045268;28;20196;-68
2021/12/18 07:10:22;;;;;;;0.10;0.10;;;;;;;;;;5045160;28;20247;-68
2021/12/18 07:12:48;;;;;;;0.30;0.30;;;;;;;;;;5045240;28;20438;-67
2021/12/18 07:15:14;;;;;;;0.10;0.10;;;;;;;;;;5045235;28;20250;-68
2021/12/18 07:17:41;;;;;;;0.10;0.10;;;;;;;;;;5045207;28;20207;-68
2021/12/18 07:20:08;;;;;;;0.20;0.20;;;;;;;;;;5045149;28;20276;-68
2021/12/18 07:22:34;;;;;;;0.10;0.10;;;;;;;;;;5045119;28;20204;-69
2021/12/18 07:25:02;;;;;;;0.10;0.10;;;;;;;;;;5044971;28;20214;-68
2021/12/18 07:27:28;;;;;;;0.10;0.10;;;;;;;;;;5044682;28;20276;-69
2021/12/18 07:29:54;;;;;;;0.20;0.20;;;;;;;;;;5044754;28;20209;-69
2021/12/18 07:32:20;;;;;;;0.10;0.10;;;;;;;;;;5044582;28;20338;-68
2021/12/18 07:34:46;;;;;;;0.10;0.10;;;;;;;;;;5044826;28;20205;-68
2021/12/18 07:37:13;;;;;;;0.10;0.10;;;;;;;;;;5043921;28;20418;-67
2021/12/18 07:39:39;;;;;;;0.20;0.20;;;;;;;;;;5044217;28;20246;-68
2021/12/18 07:42:07;;;;;;;0.10;0.10;;;;;;;;;;5044757;28;20201;-69
2021/12/18 07:44:33;;;;;;;0.20;0.20;;;;;;;;;;5044736;28;20562;-67
2021/12/18 07:46:59;;;;;;;0.20;0.20;;;;;;;;;;5044379;28;20208;-69
2021/12/18 07:49:25;;;;;;;0.20;0.20;;;;;;;;;;5044605;28;20211;-67
2021/12/18 07:51:54;;;;;;;0.10;0.10;;;;;;;;;;5044424;28;20224;-68
2021/12/18 07:54:20;;;;;;;0.10;0.10;;;;;;;;;;5044276;28;20227;-68
2021/12/18 07:56:46;;;;;;;0.10;0.10;;;;;;;;;;5044487;28;20208;-68
2021/12/18 07:59:15;;;;;;;0.10;0.10;;;;;;;;;;5044187;28;20216;-70
2021/12/18 08:01:41;;;;;;;0.17;0.17;;;;;;;;;;5044033;28;20212;-68
2021/12/18 08:04:08;;;;;;;0.10;0.10;;;;;;;;;;5044359;28;20417;-68
2021/12/18 08:06:34;;;;;;;3.37;3.23;;;;;;;;;;5043886;28;20277;-67
2021/12/18 08:09:00;;;;;;;0.10;0.10;;;;;;;;;;5043961;28;20205;-68
2021/12/18 08:11:26;;;;;;;0.10;0.10;;;;;;;;;;5044117;28;20402;-69
2021/12/18 08:13:52;;;;;;;0.17;0.17;;;;;;;;;;5043833;28;20355;-69
2021/12/18 08:16:20;;;;;;;0.10;0.10;;;;;;;;;;5043883;28;20196;-69
2021/12/18 08:18:46;;;;;;;0.20;0.20;;;;;;;;;;5043308;28;20211;-68
2021/12/18 08:21:12;;;;;;;0.10;0.10;;;;;;;;;;5043459;28;20210;-68
2021/12/18 08:23:38;;;;;;;0.10;0.10;;;;;;;;;;5032819;28;20405;-69
2021/12/18 08:26:05;;;;;;;0.20;0.20;;;;;;;;;;5028334;28;20224;-68
2021/12/18 08:28:31;;;;;;;0.10;0.10;;;;;;;;;;5030621;28;20212;-68
2021/12/18 08:30:57;;;;;;;0.10;0.10;;;;;;;;;;5040233;28;20266;-69
2021/12/18 08:33:25;;;;;;;0.10;0.10;;;;;;;;;;5043727;28;20204;-67
2021/12/18 08:35:51;;;;;;;0.10;0.10;;;;;;;;;;5043690;28;20214;-68
2021/12/18 08:38:17;;;;;;;0.87;0.87;;;;;;;;;;5043722;28;20250;-69
2021/12/18 08:40:43;;;;;;;0.10;0.10;;;;;;;;;;5043728;28;20208;-69
2021/12/18 08:43:10;;;;;;;0.10;0.10;;;;;;;;;;5043204;28;20207;-68
2021/12/18 08:45:36;;;;;;;0.10;0.10;;;;;;;;;;5043123;28;20223;-68
2021/12/18 08:48:03;;;;;;;0.20;0.20;;;;;;;;;;5043439;28;20557;-69
2021/12/18 08:50:30;;;;;;;0.30;0.30;;;;;;;;;;5043283;28;20498;-68
2021/12/18 08:52:56;;;;;;;0.20;0.20;;;;;;;;;;5043441;28;20208;-68
2021/12/18 08:55:23;;;;;;;0.10;0.10;;;;;;;;;;5043310;28;20292;-70
2021/12/18 08:57:50;;;;;;;0.10;0.10;;;;;;;;;;5043349;28;20212;-68
2021/12/18 09:00:18;;;;;;;0.20;0.20;;;;;;;;;;5043301;28;20204;-67
2021/12/18 09:02:46;;;;;;;0.13;0.13;;;;;;;;;;5042989;28;20209;-68
2021/12/18 09:05:12;;;;;;;0.20;0.20;;;;;;;;;;5043010;28;20620;-71
2021/12/18 09:07:39;;;;;;;0.20;0.20;;;;;;;;;;5042919;28;20204;-69
2021/12/18 09:10:06;;;;;;;0.10;0.10;;;;;;;;;;5039338;28;20211;-68
2021/12/18 09:12:33;;;;;;;0.10;0.10;;;;;;;;;;5033541;28;20232;-67
2021/12/18 09:14:59;;;;;;;0.10;0.10;;;;;;;;;;5028509;28;20275;-67
2021/12/18 09:17:25;;;;;;;0.10;0.10;;;;;;;;;;5023097;28;20211;-68
2021/12/18 09:19:51;;;;;;;0.10;0.10;;;;;;;;;;5031257;28;20212;-69
2021/12/18 09:22:18;;;;;;;0.10;0.10;;;;;;;;;;5039785;28;20542;-67
2021/12/18 09:24:46;;;;;;;0.10;0.10;;;;;;;;;;5032784;28;20203;-68
2021/12/18 09:27:15;;;;;;;0.20;0.20;;;;;;;;;;5026917;28;20255;-68
2021/12/18 09:29:41;;;;;;;0.20;0.20;;;;;;;;;;5041040;28;20278;-67
2021/12/18 09:32:08;;;;;;;0.10;0.10;;;;;;;;;;5038153;28;20278;-67
2021/12/18 09:34:34;;;;;;;0.10;0.10;;;;;;;;;;5038809;28;20498;-70
2021/12/18 09:37:00;;;;;;;0.20;0.20;;;;;;;;;;5042480;28;20228;-69
2021/12/18 09:39:27;;;;;;;0.10;0.10;;;;;;;;;;5042643;28;20211;-71
2021/12/18 09:41:54;;;;;;;0.10;0.10;;;;;;;;;;5025753;28;20232;-68
2021/12/18 09:44:24;;;;;;;0.10;0.10;;;;;;;;;;5022950;28;20208;-67
2021/12/18 09:46:50;;;;;;;0.10;0.10;;;;;;;;;;5022957;28;20216;-67
2021/12/18 09:49:16;;;;;;;0.10;0.10;;;;;;;;;;5023101;28;20206;-68
2021/12/18 09:51:43;;;;;;;0.10;0.10;;;;;;;;;;5022585;28;20225;-68
2021/12/18 09:54:09;;;;;;;0.20;0.20;;;;;;;;;;5022990;28;20260;-68
2021/12/18 09:56:35;;;;;;;0.10;0.10;;;;;;;;;;5038517;28;20247;-69
2021/12/18 09:59:03;;;;;;;0.17;0.17;;;;;;;;;;5042221;28;20205;-68
2021/12/18 10:01:29;;;;;;;0.10;0.10;;;;;;;;;;5033454;28;20247;-70
2021/12/18 10:03:58;;;;;;;0.10;0.10;;;;;;;;;;5029430;28;20228;-70
2021/12/18 10:06:39;;;;;;;0.40;0.40;;;;;;;;;;5032651;28;20247;-69
2021/12/18 10:09:07;;;;;;;0.10;0.10;;;;;;;;;;5023026;28;20201;-68
2021/12/18 10:11:33;;;;;;;0.10;0.10;;;;;;;;;;5022827;28;20228;-69
2021/12/18 10:14:02;;;;;;;0.10;0.10;;;;;;;;;;5022561;28;20202;-69
2021/12/18 10:16:30;;;;;;;0.10;0.10;;;;;;;;;;5032615;28;20214;-68
2021/12/18 10:18:57;;;;;;;0.20;0.20;;;;;;;;;;5042520;28;20304;-68
2021/12/18 10:21:24;;;;;;;0.20;0.20;;;;;;;;;;5032964;28;20504;-69
2021/12/18 10:23:50;;;;;;;0.10;0.10;;;;;;;;;;5026071;28;20208;-74
2021/12/18 10:26:35;;;;;;;0.10;0.10;;;;;;;;;;5026031;28;20205;-73
2021/12/18 10:29:01;;;;;;;0.10;0.10;;;;;;;;;;5029665;28;20436;-71
2021/12/18 10:31:43;;;;;;;0.10;0.10;;;;;;;;;;5040104;28;20452;-69
2021/12/18 10:34:16;;;;;;;0.10;0.10;;;;;;;;;;5037997;28;20218;-70
2021/12/18 10:36:42;;;;;;;0.20;0.20;;;;;;;;;;5034926;28;20208;-68
2021/12/18 10:39:08;;;;;;;0.10;0.10;;;;;;;;;;5045699;28;20204;-69
2021/12/18 10:41:36;;;;;;;0.20;0.20;;;;;;;;;;5045526;28;20203;-69
2021/12/18 10:44:04;;;;;;;0.20;0.20;;;;;;;;;;5042476;28;20219;-72
2021/12/18 10:46:31;;;;;;;0.20;0.20;;;;;;;;;;5045347;28;20207;-70
2021/12/18 10:49:00;;;;;;;0.10;0.10;;;;;;;;;;5045462;28;20206;-72
2021/12/18 10:51:29;;;;;;;0.10;0.10;;;;;;;;;;5045081;28;20245;-72
2021/12/18 10:53:59;;;;;;;0.10;0.10;;;;;;;;;;5042304;28;20236;-72
2021/12/18 10:56:32;;;;;;;0.10;0.10;;;;;;;;;;5045208;28;20204;-71
2021/12/18 10:58:58;;;;;;;0.10;0.10;;;;;;;;;;5043704;28;20205;-74
2021/12/18 11:01:24;;;;;;;0.20;0.20;;;;;;;;;;5044846;28;20247;-72
2021/12/18 11:03:51;;;;;;;0.10;0.10;;;;;;;;;;5025293;28;20248;-70
2021/12/18 11:06:21;;;;;;;0.10;0.10;;;;;;;;;;5025093;28;20620;-71
2021/12/18 11:08:52;;;;;;;0.10;0.10;;;;;;;;;;5025081;28;20209;-73
2021/12/18 11:13:59;;;;;;;0.10;0.10;;;;;;;;;;5019423;28;20233;-69
2021/12/18 11:16:27;;;;;;;0.10;0.10;;;;;;;;;;5039252;28;20201;-74
2021/12/18 11:18:54;;;;;;;0.20;0.20;;;;;;;;;;5036719;28;20218;-73
2021/12/18 11:21:23;;;;;;;0.10;0.10;;;;;;;;;;5039356;28;20379;-72
2021/12/18 11:23:51;;;;;;;0.20;0.20;;;;;;;;;;5044937;28;20282;-69
2021/12/18 11:26:19;;;;;;;0.20;0.20;;;;;;;;;;5039892;28;20260;-71
2021/12/18 11:28:49;;;;;;;0.10;0.10;;;;;;;;;;5035727;28;20437;-70
2021/12/18 11:31:15;;;;;;;0.17;0.17;;;;;;;;;;5032088;28;20216;-69
2021/12/18 11:33:42;;;;;;;0.10;0.10;;;;;;;;;;5043984;28;20223;-70
2021/12/18 11:36:09;;;;;;;0.10;0.10;;;;;;;;;;5044473;28;20426;-70
2021/12/18 11:38:38;;;;;;;0.10;0.10;;;;;;;;;;5031613;28;20541;-69
2021/12/18 11:41:04;;;;;;;0.10;0.10;;;;;;;;;;5043711;28;20212;-74
2021/12/18 11:43:32;;;;;;;0.20;0.20;;;;;;;;;;5031749;28;20384;-69
2021/12/18 11:45:58;;;;;;;0.10;0.10;;;;;;;;;;5024864;28;20205;-69
2021/12/18 11:48:24;;;;;;;0.10;0.10;;;;;;;;;;5024800;28;20526;-70
2021/12/18 11:50:51;;;;;;;0.20;0.20;;;;;;;;;;5024821;28;20213;-70
2021/12/18 11:53:18;;;;;;;0.10;0.10;;;;;;;;;;5024303;28;20225;-70
2021/12/18 11:55:59;;;;;;;0.20;0.20;;;;;;;;;;5024702;28;20511;-70
2021/12/18 11:58:26;;;;;;;0.20;0.20;;;;;;;;;;5024716;28;20205;-70
2021/12/18 12:00:55;;;;;;;0.13;0.13;;;;;;;;;;5024474;28;20250;-70
2021/12/18 12:03:27;;;;;;;0.10;0.10;;;;;;;;;;5024612;28;20197;-70
2021/12/18 12:05:54;;;;;;;0.10;0.10;;;;;;;;;;5023857;28;20332;-69
2021/12/18 12:08:30;;;;;;;0.10;0.10;;;;;;;;;;5026924;28;20227;-68
2021/12/18 12:11:15;;;;;;;0.10;0.10;;;;;;;;;;5038518;28;20303;-70
2021/12/18 12:14:10;;;;;;;0.20;0.20;;;;;;;;;;5028622;28;20216;-71
2021/12/18 12:16:55;;;;;;;0.20;0.20;;;;;;;;;;4995393;28;20216;-69
2021/12/18 12:19:24;;;;;;;0.20;0.20;;;;;;;;;;5031515;28;20224;-69
2021/12/18 12:21:52;;;;;;;0.10;0.10;;;;;;;;;;5025368;28;20276;-70
2021/12/18 12:24:19;;;;;;;0.10;0.10;;;;;;;;;;5043854;28;20341;-70
2021/12/18 12:26:47;;;;;;;0.20;0.20;;;;;;;;;;5043376;28;20200;-69
2021/12/18 12:29:14;;;;;;;0.13;0.13;;;;;;;;;;5043542;28;20522;-70
2021/12/18 12:31:54;;;;;;;0.10;0.10;;;;;;;;;;5043518;28;20279;-69
2021/12/18 12:34:20;;;;;;;0.10;0.10;;;;;;;;;;5037901;28;20246;-70
2021/12/18 12:36:47;;;;;;;0.20;0.20;;;;;;;;;;5037899;28;20450;-72
2021/12/18 12:39:14;;;;;;;0.10;0.10;;;;;;;;;;5042976;28;20236;-70
2021/12/18 12:41:42;;;;;;;0.10;0.10;;;;;;;;;;5036274;28;20272;-73
2021/12/18 12:44:16;;;;;;;0.10;0.10;;;;;;;;;;5023356;28;20212;-72
2021/12/18 12:46:43;;;;;;;0.10;0.10;;;;;;;;;;5029608;28;20231;-74
2021/12/18 12:49:11;;;;;;;0.13;0.13;;;;;;;;;;5042678;28;20318;-71
2021/12/18 12:51:56;;;;;;;0.10;0.10;;;;;;;;;;5042971;28;20257;-71
2021/12/18 12:54:37;;;;;;;0.10;0.10;;;;;;;;;;5043111;28;20238;-72
2021/12/18 12:57:22;;;;;;;0.20;0.20;;;;;;;;;;5026648;28;20201;-72
2021/12/18 12:59:50;;;;;;;0.10;0.10;;;;;;;;;;5042948;28;20235;-69
2021/12/18 13:02:16;;;;;;;0.10;0.10;;;;;;;;;;5042987;28;20291;-69
2021/12/18 13:04:42;;;;;;;0.20;0.20;;;;;;;;;;5041503;28;20496;-70
2021/12/18 13:07:10;;;;;;;0.13;0.13;;;;;;;;;;5041684;28;20232;-70
2021/12/18 13:09:36;;;;;;;0.17;0.17;;;;;;;;;;5037386;28;20207;-70
2021/12/18 13:12:04;;;;;;;0.10;0.10;;;;;;;;;;5041940;28;20212;-70
2021/12/18 13:14:35;;;;;;;0.17;0.17;;;;;;;;;;5042687;28;20283;-71
2021/12/18 13:17:16;;;;;;;0.20;0.20;;;;;;;;;;5043211;28;20193;-71
2021/12/18 13:19:51;;;;;;;0.20;0.20;;;;;;;;;;5038117;28;20189;-71
2021/12/18 13:22:18;;;;;;;0.20;0.20;;;;;;;;;;5023061;28;20261;-75
2021/12/18 13:24:44;;;;;;;0.10;0.10;;;;;;;;;;5023012;28;20211;-75
2021/12/18 13:27:11;;;;;;;0.10;0.10;;;;;;;;;;5022910;28;20209;-80
2021/12/18 13:29:38;;;;;;;0.10;0.10;;;;;;;;;;5023008;28;20245;-76
2021/12/18 13:32:06;;;;;;;0.10;0.10;;;;;;;;;;5022971;28;20209;-79
2021/12/18 13:34:36;;;;;;;0.10;0.10;;;;;;;;;;5025332;28;20219;-78
2021/12/18 13:37:04;;;;;;;0.17;0.17;;;;;;;;;;5023086;28;20205;-72
2021/12/18 13:39:32;;;;;;;0.10;0.10;;;;;;;;;;5031672;28;20204;-67
2021/12/18 13:42:06;;;;;;;0.17;0.17;;;;;;;;;;5043020;28;20208;-66
2021/12/18 13:44:42;;;;;;;0.13;0.13;;;;;;;;;;5042895;28;20201;-69
2021/12/18 13:47:14;;;;;;;0.10;0.10;;;;;;;;;;5042232;28;20403;-70
2021/12/18 13:49:40;;;;;;;0.10;0.10;;;;;;;;;;5041565;28;20208;-76
2021/12/18 13:52:07;;;;;;;0.10;0.10;;;;;;;;;;5041448;28;20254;-72
2021/12/18 13:54:34;;;;;;;0.13;0.13;;;;;;;;;;5042514;28;20259;-75
2021/12/18 13:57:00;;;;;;;0.10;0.10;;;;;;;;;;5045025;28;20212;-78
2021/12/18 13:59:26;;;;;;;0.20;0.20;;;;;;;;;;5037338;28;20205;-72
2021/12/18 14:01:53;;;;;;;0.10;0.10;;;;;;;;;;5046010;28;20372;-72
2021/12/18 14:04:22;;;;;;;0.10;0.10;;;;;;;;;;5045780;28;20275;-74
2021/12/18 14:06:49;;;;;;;0.10;0.10;;;;;;;;;;5037093;28;20252;-74
2021/12/18 14:09:19;;;;;;;0.10;0.10;;;;;;;;;;5036227;28;20254;-74
2021/12/18 14:11:52;;;;;;;0.10;0.10;;;;;;;;;;5046353;28;20205;-74
2021/12/18 14:14:18;;;;;;;0.10;0.10;;;;;;;;;;5046514;28;20254;-71
2021/12/18 14:16:49;;;;;;;0.10;0.10;;;;;;;;;;5046151;28;20542;-70
2021/12/18 14:19:24;;;;;;;0.10;0.10;;;;;;;;;;5046151;28;20192;-71
2021/12/18 14:21:51;;;;;;;0.10;0.10;;;;;;;;;;5046214;28;20303;-72
2021/12/18 14:24:19;;;;;;;0.10;0.10;;;;;;;;;;5046198;28;20329;-72
2021/12/18 14:26:54;;;;;;;0.10;0.10;;;;;;;;;;5045981;28;20231;-69
2021/12/18 14:29:20;;;;;;;0.67;0.67;;;;;;;;;;5040646;28;20196;-77
2021/12/18 14:31:50;;;;;;;0.10;0.10;;;;;;;;;;5046109;28;20454;-71
2021/12/18 14:34:22;;;;;;;0.10;0.10;;;;;;;;;;5030100;28;20273;-71
2021/12/18 14:36:50;;;;;;;0.10;0.10;;;;;;;;;;5039401;28;20275;-71
2021/12/18 14:39:19;;;;;;;0.10;0.10;;;;;;;;;;5042307;28;20204;-71
2021/12/18 14:41:56;;;;;;;0.10;0.10;;;;;;;;;;5039808;28;20209;-71
2021/12/18 14:44:22;;;;;;;0.10;0.10;;;;;;;;;;5037305;28;20310;-71
2021/12/18 14:47:02;;;;;;;0.20;0.20;;;;;;;;;;5039662;28;20204;-70
2021/12/18 14:49:28;;;;;;;0.20;0.20;;;;;;;;;;5025983;28;20205;-69
2021/12/18 14:51:59;;;;;;;0.10;0.10;;;;;;;;;;5033040;28;20427;-69
2021/12/18 14:54:27;;;;;;;0.20;0.20;;;;;;;;;;5030971;28;20381;-70
2021/12/18 14:57:13;;;;;;;0.10;0.10;;;;;;;;;;5026352;28;20508;-71
2021/12/18 14:59:39;;;;;;;0.17;0.17;;;;;;;;;;5028287;28;20212;-70
2021/12/18 15:02:05;;;;;;;0.20;0.20;;;;;;;;;;5042191;28;20408;-72
2021/12/18 15:04:31;;;;;;;0.10;0.10;;;;;;;;;;5038355;28;20201;-70
2021/12/18 15:06:58;;;;;;;0.20;0.20;;;;;;;;;;5038375;28;20239;-71
2021/12/18 15:09:24;;;;;;;1.37;1.37;;;;;;;;;;5028671;28;20275;-70
2021/12/18 15:11:52;;;;;;;0.10;0.10;;;;;;;;;;5037879;28;20203;-71
2021/12/18 15:14:19;;;;;;;0.10;0.10;;;;;;;;;;5045201;28;20231;-71
2021/12/18 15:16:46;;;;;;;0.10;0.10;;;;;;;;;;5045919;28;20212;-72
2021/12/18 15:19:13;;;;;;;0.10;0.10;;;;;;;;;;5026621;28;20239;-72
2021/12/18 15:21:40;;;;;;;0.10;0.10;;;;;;;;;;5040368;28;20204;-72